createdAt,value
2018-05-02T00:01:21.840Z,7.10
2018-05-02T00:03:49.289Z,7.00
2018-05-02T00:06:16.744Z,6.90
2018-05-02T00:08:44.191Z,6.90
2018-05-02T00:11:11.643Z,6.80
2018-05-02T00:13:39.840Z,6.70
2018-05-02T00:16:07.273Z,6.60
2018-05-02T00:18:34.716Z,6.70
2018-05-02T00:21:02.155Z,6.70
2018-05-02T00:23:29.600Z,6.70
2018-05-02T00:25:57.033Z,6.70
2018-05-02T00:28:25.233Z,6.70
2018-05-02T00:30:52.684Z,6.60
2018-05-02T00:33:20.191Z,6.70
2018-05-02T00:35:47.641Z,6.70
2018-05-02T00:38:15.084Z,6.60
2018-05-02T00:40:42.520Z,6.60
2018-05-02T00:43:09.971Z,6.50
2018-05-02T00:45:37.403Z,6.50
2018-05-02T00:48:04.848Z,6.50
2018-05-02T00:50:32.288Z,6.40
2018-05-02T00:53:00.230Z,6.40
2018-05-02T00:55:27.674Z,6.30
2018-05-02T00:57:55.111Z,6.30
2018-05-02T01:00:22.560Z,6.30
2018-05-02T01:02:50.081Z,6.30
2018-05-02T01:05:17.441Z,6.30
2018-05-02T01:07:44.890Z,6.30
2018-05-02T01:10:12.506Z,6.30
2018-05-02T01:12:39.952Z,6.30
2018-05-02T01:15:07.383Z,6.20
2018-05-02T01:17:34.815Z,6.20
2018-05-02T01:20:02.267Z,6.20
2018-05-02T01:22:29.699Z,6.20
2018-05-02T01:24:57.149Z,6.30
2018-05-02T01:27:24.658Z,6.30
2018-05-02T01:29:52.099Z,6.20
2018-05-02T01:32:19.571Z,6.10
2018-05-02T01:34:47.012Z,6.20
2018-05-02T01:37:14.461Z,6.20
2018-05-02T01:39:41.895Z,6.20
2018-05-02T01:42:09.325Z,6.20
2018-05-02T01:44:36.781Z,6.20
2018-05-02T01:47:04.208Z,6.20
2018-05-02T01:49:31.648Z,6.20
2018-05-02T01:51:59.085Z,6.10
2018-05-02T01:54:26.520Z,5.90
2018-05-02T01:56:53.953Z,5.90
2018-05-02T01:59:22.148Z,5.80
2018-05-02T02:01:49.607Z,5.80
2018-05-02T02:04:17.054Z,5.80
2018-05-02T02:06:44.486Z,5.70
2018-05-02T02:09:11.919Z,5.70
2018-05-02T02:11:39.380Z,5.60
2018-05-02T02:14:07.827Z,5.60
2018-05-02T02:16:35.801Z,5.50
2018-05-02T02:19:03.252Z,5.50
2018-05-02T02:21:30.702Z,5.50
2018-05-02T02:23:58.136Z,5.50
2018-05-02T02:26:27.220Z,5.50
2018-05-02T02:28:54.663Z,5.40
2018-05-02T02:31:22.117Z,5.50
2018-05-02T02:33:49.550Z,5.50
2018-05-02T02:36:16.988Z,5.50
2018-05-02T02:38:45.205Z,5.50
2018-05-02T02:41:12.659Z,5.40
2018-05-02T02:43:40.964Z,5.50
2018-05-02T02:46:08.413Z,5.50
2018-05-02T02:48:36.758Z,5.40
2018-05-02T02:51:04.976Z,5.50
2018-05-02T02:53:32.412Z,5.40
2018-05-02T02:55:59.852Z,5.50
2018-05-02T02:58:27.283Z,5.50
2018-05-02T03:00:55.621Z,5.40
2018-05-02T03:03:23.063Z,5.40
2018-05-02T03:05:50.519Z,5.40
2018-05-02T03:08:17.970Z,5.40
2018-05-02T03:10:45.392Z,5.30
2018-05-02T03:13:12.831Z,5.30
2018-05-02T03:15:40.289Z,5.30
2018-05-02T03:18:07.728Z,5.20
2018-05-02T03:20:35.183Z,5.20
2018-05-02T03:23:02.611Z,5.20
2018-05-02T03:25:30.046Z,5.20
2018-05-02T03:27:57.506Z,5.10
2018-05-02T03:30:24.944Z,5.10
2018-05-02T03:32:52.391Z,5.00
2018-05-02T03:35:19.844Z,5.00
2018-05-02T03:37:47.279Z,4.90
2018-05-02T03:40:14.732Z,4.90
2018-05-02T03:42:42.181Z,4.90
2018-05-02T03:45:09.632Z,4.90
2018-05-02T03:47:37.074Z,4.90
2018-05-02T03:50:04.512Z,4.90
2018-05-02T03:52:32.723Z,4.90
2018-05-02T03:55:00.159Z,4.80
2018-05-02T03:57:27.624Z,4.80
2018-05-02T04:00:06.811Z,4.80
2018-05-02T04:02:46.124Z,4.80
2018-05-02T04:05:25.403Z,4.80
2018-05-02T04:07:52.851Z,4.80
2018-05-02T04:10:20.527Z,4.90
2018-05-02T04:12:47.963Z,4.90
2018-05-02T04:15:15.422Z,5.00
2018-05-02T04:17:43.248Z,5.00
2018-05-02T04:20:10.668Z,5.10
2018-05-02T04:22:38.118Z,5.10
2018-05-02T04:25:05.556Z,5.20
2018-05-02T04:27:33.041Z,5.20
2018-05-02T04:30:01.044Z,5.20
2018-05-02T04:32:28.608Z,5.20
2018-05-02T04:34:56.046Z,5.20
2018-05-02T04:37:24.144Z,5.30
2018-05-02T04:39:51.575Z,5.30
2018-05-02T04:42:19.040Z,5.30
2018-05-02T04:44:46.475Z,5.30
2018-05-02T04:47:13.969Z,5.30
2018-05-02T04:49:41.657Z,5.40
2018-05-02T04:52:09.107Z,5.40
2018-05-02T04:54:36.584Z,5.40
2018-05-02T04:57:04.284Z,5.40
2018-05-02T04:59:32.251Z,5.40
2018-05-02T05:01:59.745Z,5.40
2018-05-02T05:04:27.632Z,5.50
2018-05-02T05:06:55.086Z,5.50
2018-05-02T05:09:22.527Z,5.50
2018-05-02T05:11:50.310Z,5.50
2018-05-02T05:14:17.781Z,5.60
2018-05-02T05:16:45.223Z,5.60
2018-05-02T05:19:12.655Z,5.70
2018-05-02T05:21:40.877Z,5.70
2018-05-02T05:24:08.326Z,5.80
2018-05-02T05:26:36.648Z,5.90
2018-05-02T05:29:04.091Z,6.00
2018-05-02T05:31:31.525Z,6.10
2018-05-02T05:33:58.973Z,6.10
2018-05-02T05:36:26.804Z,6.10
2018-05-02T05:38:54.258Z,6.20
2018-05-02T05:41:21.693Z,6.30
2018-05-02T05:43:49.142Z,6.30
2018-05-02T05:46:16.660Z,6.40
2018-05-02T05:48:44.119Z,6.50
2018-05-02T05:51:11.629Z,6.60
2018-05-02T05:53:39.064Z,6.60
2018-05-02T05:56:06.506Z,6.70
2018-05-02T05:58:34.744Z,7.10
2018-05-02T06:01:02.192Z,7.00
2018-05-02T06:03:29.740Z,7.30
2018-05-02T06:05:57.180Z,7.50
2018-05-02T06:08:25.380Z,7.80
2018-05-02T06:10:53.137Z,7.70
2018-05-02T06:13:20.567Z,7.90
2018-05-02T06:15:48.010Z,8.00
2018-05-02T06:18:15.505Z,8.10
2018-05-02T06:20:42.943Z,8.20
2018-05-02T06:23:10.399Z,8.10
2018-05-02T06:25:37.849Z,8.10
2018-05-02T06:28:05.292Z,8.10
2018-05-02T06:30:32.727Z,8.20
2018-05-02T06:33:00.183Z,8.30
2018-05-02T06:35:27.669Z,8.30
2018-05-02T06:37:55.107Z,8.30
2018-05-02T06:40:22.544Z,8.40
2018-05-02T06:42:51.063Z,8.50
2018-05-02T06:45:19.257Z,8.60
2018-05-02T06:47:47.221Z,8.60
2018-05-02T06:50:14.741Z,8.80
2018-05-02T06:52:42.152Z,8.90
2018-05-02T06:55:09.579Z,9.10
2018-05-02T06:57:37.784Z,9.30
2018-05-02T07:00:05.231Z,9.20
2018-05-02T07:02:32.661Z,9.40
2018-05-02T07:05:00.115Z,9.60
2018-05-02T07:07:27.547Z,9.60
2018-05-02T07:09:54.992Z,9.70
2018-05-02T07:12:22.907Z,9.70
2018-05-02T07:14:50.339Z,9.80
2018-05-02T07:17:18.018Z,9.80
2018-05-02T07:19:45.725Z,10.00
2018-05-02T07:22:13.152Z,10.10
2018-05-02T07:24:40.603Z,10.30
2018-05-02T07:27:08.160Z,10.40
2018-05-02T07:29:35.603Z,10.50
2018-05-02T07:32:03.047Z,10.60
2018-05-02T07:34:30.663Z,10.70
2018-05-02T07:36:58.112Z,10.90
2018-05-02T07:39:25.569Z,11.00
2018-05-02T07:41:53.022Z,11.10
2018-05-02T07:44:20.523Z,11.40
2018-05-02T07:46:47.977Z,11.60
2018-05-02T07:49:15.424Z,11.80
2018-05-02T07:51:42.873Z,12.00
2018-05-02T07:54:10.323Z,12.20
2018-05-02T07:56:37.777Z,12.40
2018-05-02T07:59:05.974Z,12.60
2018-05-02T08:01:33.443Z,12.60
2018-05-02T08:04:01.854Z,12.70
2018-05-02T08:06:29.558Z,12.80
2018-05-02T08:08:56.994Z,13.00
2018-05-02T08:11:24.571Z,13.10
2018-05-02T08:13:52.778Z,13.50
2018-05-02T08:16:20.313Z,13.40
2018-05-02T08:18:47.671Z,13.50
2018-05-02T08:21:15.122Z,13.60
2018-05-02T08:23:42.932Z,13.80
2018-05-02T08:26:10.404Z,14.00
2018-05-02T08:28:38.054Z,14.10
2018-05-02T08:31:05.511Z,14.30
2018-05-02T08:33:33.375Z,14.50
2018-05-02T08:36:01.591Z,14.80
2018-05-02T08:38:29.048Z,14.70
2018-05-02T08:40:56.483Z,14.90
2018-05-02T08:43:24.065Z,15.10
2018-05-02T08:45:51.515Z,15.30
2018-05-02T08:48:18.952Z,15.50
2018-05-02T08:50:47.176Z,16.10
2018-05-02T08:53:14.751Z,16.10
2018-05-02T08:55:42.451Z,16.40
2018-05-02T08:58:10.043Z,16.50
2018-05-02T09:00:38.247Z,16.60
2018-05-02T09:03:05.691Z,16.50
2018-05-02T09:05:33.146Z,16.80
2018-05-02T09:08:00.816Z,17.10
2018-05-02T09:10:28.251Z,17.20
2018-05-02T09:12:55.888Z,17.30
2018-05-02T09:15:23.355Z,17.50
2018-05-02T09:17:50.870Z,17.80
2018-05-02T09:20:18.320Z,18.00
2018-05-02T09:22:45.759Z,18.30
2018-05-02T09:25:13.602Z,18.60
2018-05-02T09:27:41.062Z,18.70
2018-05-02T09:30:08.506Z,18.80
2018-05-02T09:32:35.974Z,18.70
2018-05-02T09:35:03.420Z,18.80
2018-05-02T09:37:30.859Z,18.90
2018-05-02T09:39:58.316Z,19.20
2018-05-02T09:42:25.907Z,19.30
2018-05-02T09:44:53.713Z,19.20
2018-05-02T09:47:21.172Z,19.10
2018-05-02T09:49:48.625Z,19.30
2018-05-02T09:52:16.081Z,19.60
2018-05-02T09:54:43.520Z,19.70
2018-05-02T09:57:10.981Z,19.70
2018-05-02T09:59:38.441Z,19.60
2018-05-02T10:02:05.916Z,19.40
2018-05-02T10:04:33.475Z,19.40
2018-05-02T10:07:00.843Z,19.40
2018-05-02T10:09:28.312Z,19.50
2018-05-02T10:11:55.879Z,19.60
2018-05-02T10:14:23.659Z,19.60
2018-05-02T10:16:51.278Z,19.80
2018-05-02T10:19:18.724Z,19.80
2018-05-02T10:21:46.428Z,20.00
2018-05-02T10:24:14.346Z,20.20
2018-05-02T10:26:41.794Z,20.40
2018-05-02T10:29:09.624Z,20.80
2018-05-02T10:31:37.117Z,21.00
2018-05-02T10:34:04.564Z,21.20
2018-05-02T10:36:32.178Z,21.00
2018-05-02T10:39:00.369Z,21.00
2018-05-02T10:41:27.819Z,21.00
2018-05-02T10:43:55.271Z,21.00
2018-05-02T10:46:23.105Z,20.70
2018-05-02T10:48:50.544Z,20.70
2018-05-02T10:51:18.511Z,20.80
2018-05-02T10:53:46.300Z,21.10
2018-05-02T10:56:13.748Z,21.20
2018-05-02T10:58:41.207Z,21.10
2018-05-02T11:01:08.638Z,21.50
2018-05-02T11:03:36.183Z,21.80
2018-05-02T11:06:03.827Z,21.90
2018-05-02T11:08:32.357Z,22.20
2018-05-02T11:10:59.820Z,22.10
2018-05-02T11:13:27.265Z,22.40
2018-05-02T11:15:54.952Z,22.40
2018-05-02T11:18:22.547Z,22.40
2018-05-02T11:20:50.172Z,22.70
2018-05-02T11:23:18.390Z,23.00
2018-05-02T11:25:45.823Z,22.90
2018-05-02T11:28:13.254Z,22.90
2018-05-02T11:30:40.708Z,23.00
2018-05-02T11:33:08.145Z,23.00
2018-05-02T11:35:35.603Z,23.20
2018-05-02T11:38:03.065Z,23.20
2018-05-02T11:40:30.535Z,23.10
2018-05-02T11:42:57.988Z,23.20
2018-05-02T11:45:25.451Z,23.60
2018-05-02T11:47:52.904Z,23.40
2018-05-02T11:50:20.346Z,23.10
2018-05-02T11:52:47.847Z,23.30
2018-05-02T11:55:15.219Z,23.60
2018-05-02T11:57:42.842Z,23.40
2018-05-02T12:00:10.218Z,23.00
2018-05-02T12:02:37.793Z,22.60
2018-05-02T12:05:05.196Z,22.50
2018-05-02T12:07:32.999Z,22.70
2018-05-02T12:10:00.540Z,23.30
2018-05-02T12:12:27.997Z,24.20
2018-05-02T12:14:55.423Z,25.00
2018-05-02T12:17:22.868Z,25.50
2018-05-02T12:19:50.511Z,25.40
2018-05-02T12:22:17.959Z,25.40
2018-05-02T12:24:45.640Z,25.50
2018-05-02T12:27:13.115Z,25.50
2018-05-02T12:29:40.576Z,25.40
2018-05-02T12:32:08.035Z,25.20
2018-05-02T12:34:35.475Z,25.00
2018-05-02T12:37:02.927Z,24.90
2018-05-02T12:39:30.385Z,25.40
2018-05-02T12:41:57.875Z,25.70
2018-05-02T12:44:25.338Z,26.00
2018-05-02T12:46:52.812Z,26.30
2018-05-02T12:49:20.660Z,26.20
2018-05-02T12:51:48.213Z,26.40
2018-05-02T12:54:15.656Z,26.60
2018-05-02T12:56:43.103Z,26.40
2018-05-02T12:59:10.541Z,26.40
2018-05-02T13:01:37.987Z,26.30
2018-05-02T13:04:05.426Z,25.90
2018-05-02T13:06:32.895Z,25.40
2018-05-02T13:09:00.449Z,24.70
2018-05-02T13:11:27.899Z,24.60
2018-05-02T13:13:55.699Z,24.10
2018-05-02T13:16:23.133Z,23.90
2018-05-02T13:18:50.684Z,23.80
2018-05-02T13:21:18.484Z,23.80
2018-05-02T13:23:45.942Z,23.80
2018-05-02T13:26:13.404Z,23.70
2018-05-02T13:28:40.845Z,23.50
2018-05-02T13:31:08.280Z,23.50
2018-05-02T13:33:36.812Z,24.00
2018-05-02T13:36:04.247Z,24.00
2018-05-02T13:38:32.148Z,24.30
2018-05-02T13:40:59.628Z,24.20
2018-05-02T13:43:27.077Z,24.20
2018-05-02T13:45:54.551Z,24.20
2018-05-02T13:48:22.089Z,24.10
2018-05-02T13:50:49.529Z,24.10
2018-05-02T13:53:17.239Z,24.00
2018-05-02T13:55:44.734Z,23.70
2018-05-02T13:58:12.276Z,23.20
2018-05-02T14:00:39.787Z,22.70
2018-05-02T14:03:07.254Z,22.20
2018-05-02T14:05:34.689Z,21.80
2018-05-02T14:08:02.117Z,21.40
2018-05-02T14:10:29.945Z,21.10
2018-05-02T14:12:57.509Z,20.90
2018-05-02T14:15:24.951Z,20.80
2018-05-02T14:17:52.397Z,20.90
2018-05-02T14:20:19.832Z,21.00
2018-05-02T14:22:47.283Z,21.00
2018-05-02T14:25:14.743Z,20.90
2018-05-02T14:27:42.280Z,20.80
2018-05-02T14:30:10.068Z,20.70
2018-05-02T14:32:37.549Z,20.70
2018-05-02T14:35:05.354Z,20.80
2018-05-02T14:37:32.788Z,20.80
2018-05-02T14:40:00.295Z,20.90
2018-05-02T14:42:27.725Z,21.00
2018-05-02T14:44:55.155Z,21.00
2018-05-02T14:47:22.799Z,21.00
2018-05-02T14:49:50.234Z,20.90
2018-05-02T14:52:17.692Z,21.00
2018-05-02T14:54:45.144Z,21.00
2018-05-02T14:57:12.567Z,21.10
2018-05-02T14:59:40.016Z,21.00
2018-05-02T15:02:07.507Z,21.10
2018-05-02T15:04:34.967Z,21.20
2018-05-02T15:07:02.818Z,21.30
2018-05-02T15:09:30.277Z,21.40
2018-05-02T15:11:57.720Z,21.40
2018-05-02T15:14:25.159Z,21.50
2018-05-02T15:16:52.748Z,21.60
2018-05-02T15:19:20.183Z,21.70
2018-05-02T15:21:47.618Z,21.70
2018-05-02T15:24:15.124Z,21.70
2018-05-02T15:26:42.555Z,21.70
2018-05-02T15:29:10.012Z,21.60
2018-05-02T15:31:37.440Z,21.50
2018-05-02T15:34:04.897Z,21.50
2018-05-02T15:36:32.343Z,21.40
2018-05-02T15:38:59.821Z,21.40
2018-05-02T15:41:27.268Z,21.40
2018-05-02T15:43:54.740Z,21.30
2018-05-02T15:46:22.168Z,21.20
2018-05-02T15:48:49.613Z,21.10
2018-05-02T15:51:17.515Z,20.90
2018-05-02T15:53:44.962Z,20.80
2018-05-02T15:56:12.447Z,20.80
2018-05-02T15:58:40.663Z,20.80
2018-05-02T16:01:08.184Z,20.80
2018-05-02T16:03:35.655Z,20.80
2018-05-02T16:06:03.527Z,20.80
2018-05-02T16:08:30.960Z,20.80
2018-05-02T16:10:58.400Z,20.70
2018-05-02T16:13:25.903Z,20.60
2018-05-02T16:15:53.360Z,20.50
2018-05-02T16:18:20.884Z,20.40
2018-05-02T16:20:48.246Z,20.40
2018-05-02T16:23:15.744Z,20.20
2018-05-02T16:25:43.190Z,19.90
2018-05-02T16:28:10.630Z,19.80
2018-05-02T16:30:38.386Z,19.80
2018-05-02T16:33:06.599Z,19.60
2018-05-02T16:35:34.162Z,19.50
2018-05-02T16:38:01.605Z,19.50
2018-05-02T16:40:29.204Z,19.30
2018-05-02T16:42:56.648Z,19.20
2018-05-02T16:45:24.128Z,19.10
2018-05-02T16:47:51.657Z,19.10
2018-05-02T16:50:19.106Z,19.10
2018-05-02T16:52:46.548Z,19.10
2018-05-02T16:55:13.996Z,19.00
2018-05-02T16:57:41.444Z,19.00
2018-05-02T17:00:08.888Z,19.00
2018-05-02T17:02:36.332Z,19.00
2018-05-02T17:05:03.827Z,18.90
2018-05-02T17:07:31.289Z,18.80
2018-05-02T17:09:58.720Z,18.70
2018-05-02T17:12:26.152Z,18.70
2018-05-02T17:14:53.687Z,18.60
2018-05-02T17:17:21.142Z,18.60
2018-05-02T17:19:48.605Z,18.60
2018-05-02T17:22:16.092Z,18.60
2018-05-02T17:24:43.488Z,18.50
2018-05-02T17:27:11.010Z,18.40
2018-05-02T17:29:38.449Z,18.40
2018-05-02T17:32:05.896Z,18.30
2018-05-02T17:34:33.431Z,18.30
2018-05-02T17:37:00.912Z,18.20
2018-05-02T17:39:28.388Z,18.10
2018-05-02T17:41:55.791Z,18.10
2018-05-02T17:44:23.614Z,18.10
2018-05-02T17:46:51.074Z,18.00
2018-05-02T17:49:18.531Z,18.00
2018-05-02T17:51:45.987Z,17.90
2018-05-02T17:54:13.455Z,17.90
2018-05-02T17:56:40.912Z,17.80
2018-05-02T17:59:08.348Z,17.70
2018-05-02T18:01:35.865Z,17.70
2018-05-02T18:04:03.320Z,17.60
2018-05-02T18:06:30.759Z,17.60
2018-05-02T18:08:58.191Z,17.50
2018-05-02T18:11:25.648Z,17.50
2018-05-02T18:14:01.836Z,17.50
2018-05-02T18:16:29.280Z,17.40
2018-05-02T18:18:56.721Z,17.40
2018-05-02T18:21:24.972Z,17.20
2018-05-02T18:23:52.428Z,17.20
2018-05-02T18:26:19.890Z,17.20
2018-05-02T18:28:47.348Z,17.10
2018-05-02T18:31:14.797Z,17.10
2018-05-02T18:33:42.275Z,17.00
2018-05-02T18:36:09.720Z,16.90
2018-05-02T18:38:37.176Z,16.90
2018-05-02T18:41:04.639Z,16.80
2018-05-02T18:43:32.095Z,16.70
2018-05-02T18:45:59.592Z,16.60
2018-05-02T18:48:27.039Z,16.50
2018-05-02T18:50:54.469Z,16.40
2018-05-02T18:53:21.920Z,16.30
2018-05-02T18:55:49.368Z,16.20
2018-05-02T18:58:16.796Z,16.20
2018-05-02T19:00:44.757Z,16.10
2018-05-02T19:03:12.223Z,16.10
2018-05-02T19:05:39.678Z,16.00
2018-05-02T19:08:07.120Z,15.90
2018-05-02T19:10:34.679Z,15.90
2018-05-02T19:13:02.136Z,15.80
2018-05-02T19:15:29.644Z,15.80
2018-05-02T19:18:02.780Z,15.70
2018-05-02T19:20:36.172Z,15.60
2018-05-02T19:23:03.805Z,15.60
2018-05-02T19:25:36.933Z,15.50
2018-05-02T19:28:04.443Z,15.50
2018-05-02T19:30:36.342Z,15.40
2018-05-02T19:33:09.474Z,15.40
2018-05-02T19:35:36.990Z,15.30
2018-05-02T19:38:05.124Z,15.20
2018-05-02T19:40:50.257Z,15.20
2018-05-02T19:43:24.030Z,15.10
2018-05-02T19:45:58.736Z,15.10
2018-05-02T19:48:26.443Z,15.10
2018-05-02T19:50:59.579Z,15.00
2018-05-02T19:53:27.082Z,15.00
2018-05-02T19:55:54.516Z,14.90
2018-05-02T19:58:22.038Z,14.90
2018-05-02T20:00:55.194Z,14.90
2018-05-02T20:03:22.647Z,14.90
2018-05-02T20:05:50.100Z,14.90
2018-05-02T20:08:23.108Z,14.90
2018-05-02T20:10:56.224Z,14.90
2018-05-02T20:13:29.351Z,14.90
2018-05-02T20:15:56.840Z,14.80
2018-05-02T20:18:24.301Z,14.80
2018-05-02T20:20:51.760Z,14.70
2018-05-02T20:23:19.197Z,14.70
2018-05-02T20:25:46.657Z,14.70
2018-05-02T20:28:14.094Z,14.60
2018-05-02T20:30:41.546Z,14.60
2018-05-02T20:33:09.010Z,14.60
2018-05-02T20:35:36.448Z,14.60
2018-05-02T20:38:03.919Z,14.50
2018-05-02T20:40:31.364Z,14.40
2018-05-02T20:42:58.921Z,14.40
2018-05-02T20:45:26.355Z,14.40
2018-05-02T20:47:54.169Z,14.30
2018-05-02T20:50:21.612Z,14.30
2018-05-02T20:52:49.500Z,14.30
2018-05-02T20:55:16.988Z,14.30
2018-05-02T20:57:44.387Z,14.30
2018-05-02T21:00:11.828Z,14.30
2018-05-02T21:02:39.281Z,14.30
2018-05-02T21:05:06.711Z,14.20
2018-05-02T21:07:34.152Z,14.20
2018-05-02T21:10:01.596Z,14.10
2018-05-02T21:12:29.035Z,14.00
2018-05-02T21:14:56.487Z,14.00
2018-05-02T21:17:24.113Z,14.00
2018-05-02T21:19:51.557Z,14.00
2018-05-02T21:22:19.033Z,13.90
2018-05-02T21:24:46.483Z,13.80
2018-05-02T21:27:13.980Z,13.70
2018-05-02T21:29:41.422Z,13.70
2018-05-02T21:32:08.864Z,13.60
2018-05-02T21:34:36.314Z,13.60
2018-05-02T21:37:03.816Z,13.60
2018-05-02T21:39:31.259Z,13.60
2018-05-02T21:41:58.700Z,13.60
2018-05-02T21:44:26.185Z,13.60
2018-05-02T21:46:54.055Z,13.60
2018-05-02T21:49:21.519Z,13.60
2018-05-02T21:51:48.991Z,13.60
2018-05-02T21:54:16.526Z,13.60
2018-05-02T21:56:43.985Z,13.50
2018-05-02T21:59:11.447Z,13.50
2018-05-02T22:01:38.887Z,13.40
2018-05-02T22:04:06.339Z,13.30
2018-05-02T22:06:33.769Z,13.30
2018-05-02T22:09:01.227Z,13.30
2018-05-02T22:11:28.815Z,13.30
2018-05-02T22:13:56.232Z,13.30
2018-05-02T22:16:23.693Z,13.30
2018-05-02T22:18:51.123Z,13.20
2018-05-02T22:21:18.556Z,13.20
2018-05-02T22:23:46.006Z,13.20
2018-05-02T22:26:13.438Z,13.20
2018-05-02T22:28:40.887Z,13.20
2018-05-02T22:31:08.327Z,13.10
2018-05-02T22:33:35.772Z,13.10
2018-05-02T22:36:03.228Z,13.10
2018-05-02T22:38:30.673Z,13.00
2018-05-02T22:40:58.119Z,13.00
2018-05-02T22:43:25.675Z,13.00
2018-05-02T22:45:53.112Z,13.00
2018-05-02T22:48:20.571Z,12.90
2018-05-02T22:50:48.008Z,12.90
2018-05-02T22:53:15.465Z,12.80
2018-05-02T22:55:42.896Z,12.70
2018-05-02T22:58:10.332Z,12.60
2018-05-02T23:00:37.900Z,12.50
2018-05-02T23:03:05.376Z,12.50
2018-05-02T23:05:32.904Z,12.40
2018-05-02T23:08:00.348Z,12.40
2018-05-02T23:10:27.785Z,12.30
2018-05-02T23:12:55.236Z,12.20
2018-05-02T23:15:23.071Z,12.20
2018-05-02T23:17:50.515Z,12.10
2018-05-02T23:20:17.973Z,12.10
2018-05-02T23:22:45.447Z,12.10
2018-05-02T23:25:12.951Z,12.00
2018-05-02T23:27:40.391Z,12.00
2018-05-02T23:30:07.843Z,11.90
2018-05-02T23:32:35.280Z,11.90
2018-05-02T23:35:02.729Z,11.90
2018-05-02T23:37:30.247Z,11.80
2018-05-02T23:39:57.700Z,11.80
2018-05-02T23:42:25.148Z,11.70
2018-05-02T23:44:52.584Z,11.70
2018-05-02T23:47:20.024Z,11.70
2018-05-02T23:49:47.467Z,11.70
2018-05-02T23:52:14.901Z,11.70
2018-05-02T23:54:42.358Z,11.70
2018-05-02T23:57:09.797Z,11.70
2018-05-02T23:59:37.242Z,11.70
